Time;durP1;ratioP1;P1;durP2;ratioP2;P2;SDS_P1;SDS_P2;PMS_P1;PMS_P2;Temp;Humidity;BMP_temperature;BMP_pressure;BME280_temperature;BME280_humidity;BME280_pressure;Samples;Min_cycle;Max_cycle;Signal;HPM_P1;HPM_P2
2022/09/09 00:01:27;;;;;;;11.85;6.85;;;14.00;99.90;;;;;;5055124;28;20472;-56
2022/09/09 00:04:16;;;;;;;12.27;6.22;;;13.80;99.90;;;;;;5055215;28;20064;-56
2022/09/09 00:07:16;;;;;;;11.18;6.88;;;13.90;99.90;;;;;;5055284;28;20154;-56
2022/09/09 00:09:52;;;;;;;15.77;6.47;;;13.30;99.90;;;;;;5055011;28;20049;-56
2022/09/09 00:12:48;;;;;;;12.38;6.28;;;13.90;99.90;;;;;;5055091;28;20037;-58
2022/09/09 00:15:37;;;;;;;14.50;6.45;;;13.90;99.90;;;;;;5054824;28;20472;-63
2022/09/09 00:18:14;;;;;;;15.33;6.70;;;14.00;99.90;;;;;;5053898;28;20499;-63
2022/09/09 00:20:50;;;;;;;13.82;5.95;;;13.80;99.90;;;;;;5054760;28;20382;-63
2022/09/09 00:23:37;;;;;;;9.73;6.55;;;13.40;99.90;;;;;;5054988;28;20539;-62
2022/09/09 00:26:12;;;;;;;16.60;5.78;;;13.80;99.90;;;;;;5054722;28;20091;-63
2022/09/09 00:28:56;;;;;;;10.55;5.60;;;13.80;99.90;;;;;;5054552;28;20068;-62
2022/09/09 00:31:27;;;;;;;15.18;6.55;;;13.80;99.90;;;;;;5054563;28;20116;-62
2022/09/09 00:33:55;;;;;;;14.60;6.70;;;13.30;99.90;;;;;;5054775;28;20033;-63
2022/09/09 00:36:26;;;;;;;13.25;6.63;;;13.90;99.90;;;;;;5054629;28;20370;-63
2022/09/09 00:38:56;;;;;;;13.80;6.65;;;13.10;99.90;;;;;;5054384;28;20370;-63
2022/09/09 00:41:34;;;;;;;15.82;6.60;;;13.90;99.90;;;;;;5054277;28;20513;-63
2022/09/09 00:44:27;;;;;;;18.40;7.05;;;13.90;99.90;;;;;;5054141;28;20041;-63
2022/09/09 00:47:20;;;;;;;14.15;6.05;;;13.80;99.90;;;;;;5054219;28;20116;-63
2022/09/09 00:50:24;;;;;;;10.15;5.72;;;14.00;99.90;;;;;;5053043;28;20124;-63
2022/09/09 00:53:05;;;;;;;14.10;6.50;;;13.30;99.90;;;;;;5054244;28;20037;-63
2022/09/09 00:55:47;;;;;;;15.07;7.03;;;13.20;99.90;;;;;;5054309;28;20033;-63
2022/09/09 00:58:14;;;;;;;11.35;6.20;;;14.10;99.90;;;;;;5053876;28;20489;-63
2022/09/09 01:00:56;;;;;;;19.65;6.85;;;13.50;99.90;;;;;;5054043;28;20081;-63
2022/09/09 01:03:34;;;;;;;17.08;6.55;;;14.10;99.90;;;;;;5052485;28;20152;-63
2022/09/09 01:06:00;;;;;;;13.20;6.28;;;14.10;99.90;;;;;;5052697;28;20045;-63
2022/09/09 01:08:27;;;;;;;16.50;6.90;;;;;;;;;;5053876;28;20435;-63
2022/09/09 01:10:54;;;;;;;17.58;6.72;;;13.40;99.90;;;;;;5053801;28;20154;-63
2022/09/09 01:13:26;;;;;;;12.23;5.75;;;14.30;99.90;;;;;;5053514;28;20041;-64
2022/09/09 01:15:53;;;;;;;11.43;6.30;;;14.30;99.90;;;;;;5053928;28;20064;-63
2022/09/09 01:18:23;;;;;;;14.98;5.85;;;14.20;99.90;;;;;;5054005;28;20085;-63
2022/09/09 01:20:54;;;;;;;14.52;7.05;;;14.50;99.90;;;;;;5054067;28;20044;-63
2022/09/09 01:23:39;;;;;;;17.45;6.70;;;14.20;99.90;;;;;;5053605;28;20037;-63
2022/09/09 01:26:17;;;;;;;17.23;6.93;;;14.30;99.90;;;;;;5053730;28;20041;-63
2022/09/09 01:28:49;;;;;;;13.70;7.22;;;14.50;99.90;;;;;;5053812;28;20037;-63
2022/09/09 01:31:26;;;;;;;15.95;7.55;;;14.50;99.90;;;;;;5053409;28;20098;-62
2022/09/09 01:33:52;;;;;;;17.70;7.03;;;14.50;99.90;;;;;;5053382;28;20079;-63
2022/09/09 01:36:35;;;;;;;15.10;6.95;;;14.60;99.90;;;;;;5053379;28;20107;-63
2022/09/09 01:39:01;;;;;;;11.13;7.22;;;14.50;99.90;;;;;;5053523;28;20080;-63
2022/09/09 01:41:27;;;;;;;13.00;7.47;;;;;;;;;;5053293;28;20040;-63
2022/09/09 01:43:55;;;;;;;14.57;7.20;;;14.60;99.90;;;;;;5053162;28;20041;-63
2022/09/09 01:46:23;;;;;;;14.70;8.25;;;14.00;99.90;;;;;;5053070;28;20044;-63
2022/09/09 01:48:51;;;;;;;14.93;7.55;;;14.20;99.90;;;;;;5053424;28;20045;-63
2022/09/09 01:51:16;;;;;;;10.23;7.18;;;14.50;99.90;;;;;;5053424;28;20068;-63
2022/09/09 01:53:43;;;;;;;13.25;7.28;;;14.60;99.90;;;;;;5053546;28;20457;-63
2022/09/09 01:56:15;;;;;;;14.77;7.63;;;14.50;99.90;;;;;;5052047;28;20041;-62
2022/09/09 01:59:00;;;;;;;18.65;8.80;;;14.90;99.90;;;;;;5051869;28;20041;-62
2022/09/09 02:01:57;;;;;;;15.10;8.10;;;14.40;99.90;;;;;;5053450;28;20365;-62
2022/09/09 02:04:45;;;;;;;11.95;7.10;;;14.50;99.90;;;;;;5053195;28;20428;-63
2022/09/09 02:07:38;;;;;;;12.43;6.82;;;13.80;99.90;;;;;;5052950;28;20048;-63
2022/09/09 02:10:28;;;;;;;13.55;6.25;;;14.40;99.90;;;;;;5051651;28;20056;-63
2022/09/09 02:13:04;;;;;;;10.55;6.53;;;15.30;99.90;;;;;;5053247;28;20049;-63
2022/09/09 02:15:37;;;;;;;11.57;6.75;;;14.00;99.90;;;;;;5053047;28;20075;-63
2022/09/09 02:18:08;;;;;;;12.93;7.35;;;14.40;99.90;;;;;;5053005;28;20479;-63
2022/09/09 02:20:37;;;;;;;16.90;7.63;;;14.50;99.90;;;;;;5053035;28;20051;-63
2022/09/09 02:23:05;;;;;;;16.10;7.07;;;14.30;99.90;;;;;;5053100;28;20401;-63
2022/09/09 02:25:33;;;;;;;18.92;7.88;;;14.40;99.90;;;;;;5054437;28;20090;-62
2022/09/09 02:27:59;;;;;;;15.73;8.18;;;14.30;99.90;;;;;;5056931;28;20415;-62
2022/09/09 02:30:27;;;;;;;12.10;7.30;;;14.40;99.90;;;;;;5055500;28;20481;-62
2022/09/09 02:32:58;;;;;;;19.10;8.18;;;14.40;99.90;;;;;;5056801;28;20045;-63
2022/09/09 02:35:26;;;;;;;13.52;7.68;;;14.00;99.90;;;;;;5055448;28;20090;-63
2022/09/09 02:37:54;;;;;;;13.25;7.32;;;13.60;99.90;;;;;;5056705;28;20047;-63
2022/09/09 02:40:21;;;;;;;13.07;7.28;;;13.80;99.90;;;;;;5056858;28;20049;-62
2022/09/09 02:42:50;;;;;;;15.20;8.15;;;15.50;99.90;;;;;;5056375;28;20098;-63
2022/09/09 02:45:19;;;;;;;17.30;8.45;;;11.40;99.90;;;;;;5056652;28;20037;-63
2022/09/09 02:48:16;;;;;;;11.48;7.90;;;14.40;99.90;;;;;;5056433;28;20044;-63
2022/09/09 02:51:16;;;;;;;14.90;7.60;;;14.40;99.90;;;;;;5055459;28;20053;-63
2022/09/09 02:53:51;;;;;;;12.15;7.53;;;14.60;99.90;;;;;;5056544;28;20127;-62
2022/09/09 02:56:21;;;;;;;13.98;6.97;;;14.80;99.90;;;;;;5056433;28;20472;-64
2022/09/09 02:58:47;;;;;;;13.35;6.97;;;;;;;;;;5056528;28;20037;-63
2022/09/09 03:01:17;;;;;;;10.35;6.65;;;14.80;99.90;;;;;;5056239;28;20127;-62
2022/09/09 03:03:44;;;;;;;9.48;6.68;;;13.80;99.90;;;;;;5056099;28;20065;-63
2022/09/09 03:06:11;;;;;;;11.18;6.00;;;14.70;99.90;;;;;;5056086;28;20048;-63
2022/09/09 03:08:37;;;;;;;10.02;5.68;;;;;;;;;;5056460;28;20056;-63
2022/09/09 03:11:03;;;;;;;10.23;5.28;;;14.10;99.90;;;;;;5055871;28;20151;-63
2022/09/09 03:13:29;;;;;;;9.38;5.47;;;14.20;99.90;;;;;;5056297;28;20136;-63
2022/09/09 03:15:55;;;;;;;7.95;5.30;;;14.50;99.90;;;;;;5056093;28;20060;-63
2022/09/09 03:18:20;;;;;;;8.55;4.95;;;14.40;99.90;;;;;;5055909;28;20037;-63
2022/09/09 03:20:50;;;;;;;8.65;4.43;;;13.80;99.90;;;;;;5056020;28;20043;-56
2022/09/09 03:23:17;;;;;;;6.63;3.50;;;14.40;99.90;;;;;;5055760;28;20060;-56
2022/09/09 03:25:52;;;;;;;6.18;3.10;;;14.50;99.90;;;;;;5055707;28;20037;-56
2022/09/09 03:28:18;;;;;;;5.70;2.80;;;14.50;99.90;;;;;;5055752;28;20037;-54
2022/09/09 03:30:44;;;;;;;4.03;1.90;;;;;;;;;;5055937;28;20639;-56
2022/09/09 03:33:10;;;;;;;4.68;1.80;;;14.50;99.90;;;;;;5055597;28;20037;-63
2022/09/09 03:35:36;;;;;;;3.88;1.70;;;14.40;99.90;;;;;;5055423;28;20029;-63
2022/09/09 03:38:02;;;;;;;5.13;1.95;;;14.40;99.90;;;;;;5055675;28;20080;-63
2022/09/09 03:40:28;;;;;;;7.22;2.42;;;;;;;;;;5055507;28;20127;-63
2022/09/09 03:42:54;;;;;;;4.93;2.95;;;14.40;99.90;;;;;;5055848;28;20420;-63
2022/09/09 03:45:21;;;;;;;8.15;4.00;;;14.00;99.90;;;;;;5055456;28;20116;-63
2022/09/09 03:47:47;;;;;;;8.80;4.35;;;13.80;99.90;;;;;;5055451;28;20052;-63
2022/09/09 03:50:13;;;;;;;9.52;5.45;;;;;;;;;;5055419;28;20036;-63
2022/09/09 03:52:40;;;;;;;10.48;6.78;;;14.40;99.90;;;;;;5055469;28;20090;-63
2022/09/09 03:55:07;;;;;;;13.65;7.05;;;14.10;99.90;;;;;;5055195;28;20540;-63
2022/09/09 03:57:34;;;;;;;16.67;8.95;;;14.40;99.90;;;;;;5055340;28;20116;-63
2022/09/09 04:00:03;;;;;;;14.63;9.02;;;13.90;99.90;;;;;;5055229;28;20537;-64
2022/09/09 04:02:29;;;;;;;15.77;9.30;;;;;;;;;;5053683;28;20140;-63
2022/09/09 04:04:56;;;;;;;16.77;10.18;;;;;;;;;;5055144;28;20386;-63
2022/09/09 04:07:21;;;;;;;19.02;9.95;;;14.60;99.90;;;;;;5055056;28;20045;-63
2022/09/09 04:09:47;;;;;;;19.25;9.80;;;14.30;99.90;;;;;;5055096;28;20425;-64
2022/09/09 04:12:16;;;;;;;16.10;9.70;;;14.30;99.90;;;;;;5054959;28;20047;-63
2022/09/09 04:14:42;;;;;;;17.80;10.35;;;13.90;99.90;;;;;;5055152;28;20041;-63
2022/09/09 04:17:07;;;;;;;17.83;9.93;;;14.60;99.90;;;;;;5055072;28;20044;-63
2022/09/09 04:19:33;;;;;;;17.00;9.95;;;14.40;99.90;;;;;;5055042;28;20416;-63
2022/09/09 04:21:59;;;;;;;19.65;9.82;;;14.50;99.90;;;;;;5054799;28;20037;-63
2022/09/09 04:24:26;;;;;;;18.13;10.18;;;14.60;99.90;;;;;;5055038;28;20107;-63
2022/09/09 04:26:52;;;;;;;16.55;9.93;;;14.30;99.90;;;;;;5053424;28;20052;-62
2022/09/09 04:29:20;;;;;;;17.58;10.43;;;15.50;99.90;;;;;;5054867;28;20069;-56
2022/09/09 04:31:46;;;;;;;14.85;9.55;;;14.40;99.90;;;;;;5054237;28;20103;-56
2022/09/09 04:34:11;;;;;;;16.00;9.38;;;14.40;99.90;;;;;;5054732;28;20037;-56
2022/09/09 04:36:37;;;;;;;12.93;9.40;;;15.30;99.90;;;;;;5054647;28;20036;-56
2022/09/09 04:39:08;;;;;;;16.75;9.80;;;15.20;99.90;;;;;;5053094;28;20087;-56
2022/09/09 04:41:35;;;;;;;17.33;9.38;;;14.60;99.90;;;;;;5052497;28;20076;-56
2022/09/09 04:44:03;;;;;;;13.70;9.80;;;13.70;99.90;;;;;;5062077;28;20041;-56
2022/09/09 04:46:29;;;;;;;14.05;9.40;;;14.70;99.90;;;;;;5068267;28;20044;-56
2022/09/09 04:48:54;;;;;;;15.07;9.15;;;14.20;99.90;;;;;;5072811;28;20041;-56
2022/09/09 04:51:20;;;;;;;17.55;9.02;;;14.30;99.90;;;;;;5072632;28;20068;-56
2022/09/09 04:53:50;;;;;;;12.93;8.27;;;14.10;99.90;;;;;;5072903;28;20041;-57
2022/09/09 04:56:17;;;;;;;12.23;8.63;;;14.40;99.90;;;;;;5071624;28;20044;-63
2022/09/09 04:58:43;;;;;;;12.45;8.43;;;14.50;99.90;;;;;;5072743;28;20082;-63
2022/09/09 05:01:13;;;;;;;17.90;8.20;;;14.00;99.90;;;;;;5070130;28;20067;-63
2022/09/09 05:03:39;;;;;;;14.38;8.35;;;;;;;;;;5068455;28;20052;-64
2022/09/09 05:06:18;;;;;;;11.38;8.38;;;14.30;99.90;;;;;;5069499;28;20492;-63
2022/09/09 05:08:44;;;;;;;11.30;7.32;;;13.80;99.90;;;;;;5070104;28;20514;-63
2022/09/09 05:11:27;;;;;;;12.95;8.05;;;14.40;99.90;;;;;;5068549;28;20041;-63
2022/09/09 05:13:54;;;;;;;12.43;7.43;;;14.40;99.90;;;;;;5071202;28;20068;-64
2022/09/09 05:16:20;;;;;;;9.20;6.82;;;14.20;99.90;;;;;;5072268;28;20036;-57
2022/09/09 05:18:47;;;;;;;9.98;7.13;;;13.50;99.90;;;;;;5073253;28;20469;-57
2022/09/09 05:21:14;;;;;;;10.20;6.82;;;14.40;99.90;;;;;;5072592;28;20052;-58
2022/09/09 05:23:40;;;;;;;10.60;7.50;;;14.60;99.90;;;;;;5072571;28;20487;-58
2022/09/09 05:26:09;;;;;;;13.30;7.68;;;14.40;99.90;;;;;;5072279;28;20406;-57
2022/09/09 05:28:35;;;;;;;15.90;7.68;;;14.50;99.90;;;;;;5073612;28;20098;-57
2022/09/09 05:31:04;;;;;;;16.17;8.07;;;13.70;99.90;;;;;;5073599;28;20048;-57
2022/09/09 05:33:34;;;;;;;12.63;7.80;;;14.70;99.90;;;;;;5073293;28;20048;-57
2022/09/09 05:36:14;;;;;;;11.88;8.30;;;14.60;99.90;;;;;;5073277;28;20036;-65
2022/09/09 05:38:41;;;;;;;12.55;8.55;;;13.70;99.90;;;;;;5073647;28;20039;-64
2022/09/09 05:41:09;;;;;;;13.35;9.13;;;15.10;99.90;;;;;;5073076;28;20053;-64
2022/09/09 05:43:35;;;;;;;9.02;7.22;;;14.50;99.90;;;;;;5073169;28;20051;-57
2022/09/09 05:46:16;;;;;;;8.57;6.78;;;15.60;99.90;;;;;;5072255;28;20173;-58
2022/09/09 05:48:46;;;;;;;9.20;6.85;;;16.10;99.90;;;;;;5073386;28;20041;-57
2022/09/09 05:51:18;;;;;;;7.20;5.43;;;17.50;99.90;;;;;;5073429;28;20048;-58
2022/09/09 05:53:47;;;;;;;8.55;5.20;;;18.60;99.90;;;;;;5073165;28;20040;-56
2022/09/09 05:56:15;;;;;;;8.05;4.68;;;18.50;99.90;;;;;;5073025;28;20033;-55
2022/09/09 05:58:43;;;;;;;6.75;4.53;;;19.50;99.90;;;;;;5072919;28;20166;-55
2022/09/09 06:01:31;;;;;;;5.93;4.38;;;20.20;99.90;;;;;;5073139;28;20044;-56
2022/09/09 06:03:58;;;;;;;6.30;4.47;;;20.70;99.90;;;;;;5073623;28;20055;-56
2022/09/09 06:06:36;;;;;;;6.85;4.50;;;20.30;99.90;;;;;;5072956;28;20433;-55
2022/09/09 06:09:09;;;;;;;9.13;4.60;;;19.30;99.90;;;;;;5072889;28;20085;-55
2022/09/09 06:11:36;;;;;;;5.97;4.18;;;18.70;99.90;;;;;;5073067;28;20047;-55
2022/09/09 06:14:03;;;;;;;7.75;4.80;;;18.70;99.90;;;;;;5072133;28;20052;-56
2022/09/09 06:16:32;;;;;;;6.75;4.65;;;17.90;99.90;;;;;;5072913;28;20037;-56
2022/09/09 06:19:03;;;;;;;8.95;4.53;;;17.60;99.90;;;;;;5073258;28;20033;-56
2022/09/09 06:21:30;;;;;;;7.55;4.82;;;17.40;99.90;;;;;;5073542;28;20179;-55
2022/09/09 06:24:07;;;;;;;7.13;4.78;;;17.30;99.90;;;;;;5072972;28;20064;-62
2022/09/09 06:26:36;;;;;;;7.75;4.93;;;16.70;99.90;;;;;;5073099;28;20056;-61
2022/09/09 06:29:06;;;;;;;12.65;5.60;;;16.50;99.90;;;;;;5072733;28;20060;-61
2022/09/09 06:31:36;;;;;;;9.15;5.85;;;16.30;99.90;;;;;;5073196;28;20048;-56
2022/09/09 06:34:08;;;;;;;10.27;6.10;;;15.90;99.90;;;;;;5072586;28;20040;-56
2022/09/09 06:36:38;;;;;;;10.30;6.00;;;16.30;99.90;;;;;;5071397;28;20043;-56
2022/09/09 06:39:06;;;;;;;12.52;6.00;;;16.00;99.90;;;;;;5072744;28;20084;-56
2022/09/09 06:41:37;;;;;;;11.52;5.97;;;16.20;99.90;;;;;;5071617;28;20040;-55
2022/09/09 06:44:07;;;;;;;11.98;6.10;;;16.10;99.90;;;;;;5072643;28;20037;-55
2022/09/09 06:46:41;;;;;;;14.00;6.35;;;15.90;99.90;;;;;;5072985;28;20048;-56
2022/09/09 06:49:08;;;;;;;10.68;6.90;;;16.00;99.90;;;;;;5072763;28;20158;-56
2022/09/09 06:51:42;;;;;;;10.48;6.60;;;16.30;99.90;;;;;;5072360;28;20504;-56
2022/09/09 06:54:10;;;;;;;12.98;6.60;;;16.30;99.90;;;;;;5071666;28;20047;-56
2022/09/09 06:56:40;;;;;;;9.80;6.88;;;16.00;99.90;;;;;;5072848;28;20032;-56
2022/09/09 06:59:08;;;;;;;10.60;6.32;;;16.00;99.90;;;;;;5054151;28;20051;-56
2022/09/09 07:01:37;;;;;;;12.25;6.22;;;15.90;99.90;;;;;;5072603;28;20103;-56
2022/09/09 07:04:07;;;;;;;10.43;6.40;;;16.50;99.90;;;;;;5072367;28;20060;-56
2022/09/09 07:06:38;;;;;;;7.75;5.80;;;16.20;99.90;;;;;;5055256;28;20396;-57
2022/09/09 07:09:16;;;;;;;8.82;5.30;;;16.40;99.90;;;;;;5072671;28;20428;-56
2022/09/09 07:11:45;;;;;;;6.22;4.57;;;17.50;99.90;;;;;;5075453;28;20436;-57
2022/09/09 07:14:14;;;;;;;10.90;4.85;;;18.00;99.90;;;;;;5075855;28;20177;-56
2022/09/09 07:16:42;;;;;;;10.88;4.80;;;19.20;99.90;;;;;;5076121;28;20052;-56
2022/09/09 07:19:08;;;;;;;8.90;5.03;;;19.30;99.90;;;;;;5074566;28;20459;-56
2022/09/09 07:21:35;;;;;;;9.27;5.30;;;18.90;99.90;;;;;;5076099;28;20105;-56
2022/09/09 07:24:07;;;;;;;7.30;4.90;;;;;;;;;;5072762;28;20063;-56
2022/09/09 07:26:33;;;;;;;14.20;4.35;;;18.80;99.90;;;;;;5075737;28;20040;-56
2022/09/09 07:29:00;;;;;;;9.00;5.13;;;18.80;99.90;;;;;;5074626;28;20059;-56
2022/09/09 07:31:32;;;;;;;7.45;4.95;;;19.30;99.90;;;;;;5075648;28;20123;-56
2022/09/09 07:34:09;;;;;;;8.10;5.00;;;19.10;99.90;;;;;;5074732;28;20040;-56
2022/09/09 07:36:39;;;;;;;9.05;4.80;;;18.90;99.90;;;;;;5073107;28;20089;-56
2022/09/09 07:39:08;;;;;;;11.23;4.55;;;20.40;99.90;;;;;;5075632;28;20053;-62
2022/09/09 07:41:41;;;;;;;6.45;3.97;;;20.60;99.90;;;;;;5075840;28;20048;-63
2022/09/09 07:44:21;;;;;;;13.40;4.20;;;22.10;99.90;;;;;;5075494;28;20161;-63
2022/09/09 07:46:50;;;;;;;6.50;3.80;;;23.20;99.90;;;;;;5074014;28;20037;-63
2022/09/09 07:49:15;;;;;;;9.40;4.35;;;23.50;99.90;;;;;;5075609;28;20041;-63
2022/09/09 07:51:47;;;;;;;7.38;3.90;;;24.50;99.90;;;;;;5075341;28;20041;-63
2022/09/09 07:54:15;;;;;;;7.95;3.90;;;24.90;99.90;;;;;;5075768;28;20040;-63
2022/09/09 07:56:42;;;;;;;8.63;4.25;;;25.00;99.90;;;;;;5073559;28;20055;-63
2022/09/09 07:59:11;;;;;;;13.93;4.18;;;23.60;99.90;;;;;;5073531;28;20040;-63
2022/09/09 08:01:47;;;;;;;8.98;4.00;;;23.60;99.90;;;;;;5074439;28;20995;-63
2022/09/09 08:04:17;;;;;;;8.90;4.05;;;23.20;99.90;;;;;;5075379;28;20063;-65
2022/09/09 08:06:48;;;;;;;6.57;4.13;;;22.80;99.90;;;;;;5073312;28;20044;-64
2022/09/09 08:09:16;;;;;;;9.45;4.00;;;22.20;99.90;;;;;;5075216;28;20449;-63
2022/09/09 08:11:42;;;;;;;9.57;4.47;;;21.90;99.90;;;;;;5075143;28;20438;-64
2022/09/09 08:14:17;;;;;;;13.95;4.40;;;22.50;99.90;;;;;;5074683;28;20056;-63
2022/09/09 08:16:46;;;;;;;6.68;3.80;;;21.90;99.90;;;;;;5074355;28;20055;-63
2022/09/09 08:19:11;;;;;;;9.50;3.60;;;21.60;99.90;;;;;;5074844;28;20173;-63
2022/09/09 08:21:40;;;;;;;11.13;4.00;;;21.60;99.90;;;;;;5074545;28;20410;-64
2022/09/09 08:24:07;;;;;;;11.30;3.83;;;21.40;99.90;;;;;;5074791;28;20053;-63
2022/09/09 08:26:39;;;;;;;12.68;3.95;;;21.30;99.90;;;;;;5075078;28;20086;-64
2022/09/09 08:29:11;;;;;;;9.52;4.03;;;21.10;99.90;;;;;;5074868;28;20036;-63
2022/09/09 08:31:46;;;;;;;9.27;3.55;;;20.90;99.90;;;;;;5073627;28;20052;-64
2022/09/09 08:34:20;;;;;;;12.85;4.10;;;20.70;99.90;;;;;;5074288;28;20115;-64
2022/09/09 08:36:47;;;;;;;11.38;3.83;;;20.50;99.90;;;;;;5074176;28;20041;-64
2022/09/09 08:39:19;;;;;;;10.50;3.45;;;20.10;99.90;;;;;;5074553;28;20044;-64
2022/09/09 08:42:03;;;;;;;9.10;3.22;;;20.60;99.90;;;;;;5073230;28;20079;-63
2022/09/09 08:44:35;;;;;;;11.60;3.70;;;20.20;99.90;;;;;;5074421;28;20048;-63
2022/09/09 08:47:21;;;;;;;10.07;3.60;;;20.10;99.90;;;;;;5074698;28;20052;-63
2022/09/09 08:50:09;;;;;;;13.93;3.78;;;19.40;99.90;;;;;;5074156;28;20080;-64
2022/09/09 08:53:02;;;;;;;16.05;3.92;;;19.60;99.90;;;;;;5074029;28;20044;-64
2022/09/09 08:55:37;;;;;;;12.60;3.40;;;20.00;99.90;;;;;;5074117;28;20040;-64
2022/09/09 08:58:27;;;;;;;9.68;3.30;;;19.50;99.90;;;;;;5074246;28;20033;-63
2022/09/09 09:01:28;;;;;;;11.90;3.60;;;20.00;99.90;;;;;;5073989;28;20044;-63
2022/09/09 09:04:13;;;;;;;9.70;3.60;;;20.10;99.90;;;;;;5073949;28;20067;-63
2022/09/09 09:06:54;;;;;;;11.98;3.58;;;19.70;99.90;;;;;;5073886;28;20040;-63
2022/09/09 09:09:30;;;;;;;11.50;3.50;;;20.00;99.90;;;;;;5073875;28;20527;-63
2022/09/09 09:12:01;;;;;;;9.43;3.30;;;20.10;99.90;;;;;;5073592;28;20484;-63
2022/09/09 09:14:33;;;;;;;9.50;3.65;;;19.60;99.90;;;;;;5072211;28;20049;-64
2022/09/09 09:17:05;;;;;;;12.48;3.58;;;19.20;99.90;;;;;;5073842;28;20032;-63
2022/09/09 09:19:33;;;;;;;9.13;2.90;;;19.80;99.90;;;;;;5073637;28;20399;-62
2022/09/09 09:22:17;;;;;;;12.05;3.28;;;19.40;99.90;;;;;;5073409;28;20076;-62
2022/09/09 09:24:55;;;;;;;14.23;3.78;;;19.60;99.90;;;;;;5073335;28;20473;-64
2022/09/09 09:27:36;;;;;;;11.40;3.40;;;19.90;99.90;;;;;;5073661;28;20392;-62
2022/09/09 09:30:14;;;;;;;12.15;3.10;;;19.70;99.90;;;;;;5073661;28;20115;-64
2022/09/09 09:32:51;;;;;;;11.65;3.33;;;19.70;99.90;;;;;;5073324;28;20476;-63
2022/09/09 09:35:17;;;;;;;11.60;3.45;;;20.00;99.90;;;;;;5072220;28;20083;-63
2022/09/09 09:37:46;;;;;;;9.20;3.22;;;20.40;99.90;;;;;;5073448;28;20049;-63
2022/09/09 09:40:21;;;;;;;10.95;3.00;;;20.00;99.90;;;;;;5073262;28;20040;-63
2022/09/09 09:42:53;;;;;;;12.85;3.20;;;20.00;99.90;;;;;;5073376;28;20430;-62
2022/09/09 09:45:44;;;;;;;11.40;3.03;;;20.00;99.90;;;;;;5072871;28;20041;-62
2022/09/09 09:48:12;;;;;;;12.90;3.20;;;20.10;99.90;;;;;;5073146;28;20041;-64
2022/09/09 09:50:58;;;;;;;9.82;2.92;;;20.00;99.90;;;;;;5073343;28;20504;-63
2022/09/09 09:53:31;;;;;;;11.75;2.90;;;20.10;99.90;;;;;;5072252;28;20566;-56
2022/09/09 09:56:07;;;;;;;11.52;2.80;;;19.80;99.90;;;;;;5073077;28;20040;-56
2022/09/09 09:58:54;;;;;;;13.90;3.08;;;20.30;99.90;;;;;;5072030;28;20036;-56
2022/09/09 10:01:33;;;;;;;13.13;2.88;;;20.00;99.90;;;;;;5072696;28;20084;-56
2022/09/09 10:04:16;;;;;;;7.18;2.67;;;20.30;99.90;;;;;;5072920;28;20064;-56
2022/09/09 10:06:42;;;;;;;10.35;2.90;;;20.30;99.90;;;;;;5073259;28;20052;-56
2022/09/09 10:09:23;;;;;;;12.65;3.30;;;20.40;99.90;;;;;;5072896;28;20086;-56
2022/09/09 10:11:56;;;;;;;15.98;3.00;;;20.20;99.90;;;;;;5072974;28;20044;-56
2022/09/09 10:14:44;;;;;;;10.65;2.75;;;20.50;99.90;;;;;;5072955;28;20400;-56
2022/09/09 10:17:20;;;;;;;10.07;2.65;;;20.40;99.90;;;;;;5073171;28;20052;-56
2022/09/09 10:20:14;;;;;;;8.05;2.63;;;20.50;99.90;;;;;;5073098;28;20056;-56
2022/09/09 10:22:47;;;;;;;10.90;2.70;;;21.10;99.90;;;;;;5072909;28;20455;-56
2022/09/09 10:25:52;;;;;;;10.25;2.67;;;20.60;99.90;;;;;;5073231;28;20032;-56
2022/09/09 10:28:43;;;;;;;10.13;2.70;;;20.50;99.90;;;;;;5064072;28;20044;-57
2022/09/09 10:31:25;;;;;;;8.98;2.47;;;20.60;99.90;;;;;;5072392;28;20045;-59
2022/09/09 10:34:06;;;;;;;12.50;2.63;;;20.80;99.90;;;;;;5072957;28;20111;-57
2022/09/09 10:36:32;;;;;;;17.65;2.58;;;20.90;99.90;;;;;;5072929;28;20043;-58
2022/09/09 10:39:20;;;;;;;9.45;2.65;;;21.10;99.90;;;;;;5072716;28;20041;-57
2022/09/09 10:42:08;;;;;;;9.55;2.70;;;20.70;99.90;;;;;;5072758;28;20442;-57
2022/09/09 10:45:10;;;;;;;11.90;2.60;;;21.00;99.90;;;;;;5071773;28;20056;-57
2022/09/09 10:47:58;;;;;;;9.52;2.60;;;21.10;99.90;;;;;;5076502;28;20071;-57
2022/09/09 10:51:10;;;;;;;10.48;2.40;;;21.10;99.90;;;;;;5076680;28;20475;-57
2022/09/09 10:54:04;;;;;;;10.27;2.53;;;21.10;99.90;;;;;;5053792;28;20126;-57
2022/09/09 10:56:30;;;;;;;6.85;2.30;;;21.10;99.90;;;;;;5054139;28;20084;-57
2022/09/09 10:59:06;;;;;;;9.25;2.47;;;21.20;99.90;;;;;;5053802;28;20885;-57
2022/09/09 11:01:37;;;;;;;8.07;2.13;;;22.20;99.90;;;;;;5053908;28;20048;-57
2022/09/09 11:04:26;;;;;;;11.40;2.33;;;21.50;99.90;;;;;;5053973;28;20064;-57
2022/09/09 11:06:56;;;;;;;8.07;2.25;;;21.60;99.90;;;;;;5053870;28;20040;-57
2022/09/09 11:09:28;;;;;;;7.30;2.10;;;21.60;99.90;;;;;;5053945;28;20246;-57
2022/09/09 11:11:58;;;;;;;8.57;2.10;;;21.70;99.90;;;;;;5053985;28;20088;-57
2022/09/09 11:14:32;;;;;;;9.90;2.35;;;21.80;99.90;;;;;;5053892;28;20033;-57
2022/09/09 11:17:01;;;;;;;10.07;2.05;;;22.00;99.90;;;;;;5053923;28;20051;-57
2022/09/09 11:19:34;;;;;;;10.20;2.38;;;21.90;99.90;;;;;;5053709;28;20046;-57
2022/09/09 11:22:25;;;;;;;9.50;2.05;;;21.80;99.90;;;;;;5053638;28;20543;-58
2022/09/09 11:24:54;;;;;;;6.72;2.08;;;21.80;99.90;;;;;;5053575;28;20044;-58
2022/09/09 11:27:31;;;;;;;8.48;2.33;;;24.10;99.90;;;;;;5053515;28;20139;-57
2022/09/09 11:29:57;;;;;;;10.18;2.30;;;21.80;99.90;;;;;;5073501;28;20088;-57
2022/09/09 11:32:40;;;;;;;8.63;2.10;;;21.40;99.90;;;;;;5075712;28;20133;-57
2022/09/09 11:35:48;;;;;;;6.13;2.20;;;22.10;99.90;;;;;;5074562;28;20449;-57
2022/09/09 11:38:31;;;;;;;8.02;2.30;;;22.50;99.90;;;;;;5070845;28;20040;-57
2022/09/09 11:41:00;;;;;;;12.20;2.00;;;22.30;99.90;;;;;;5075707;28;20055;-57
2022/09/09 11:43:51;;;;;;;11.45;2.40;;;22.40;99.90;;;;;;5075183;28;20052;-57
2022/09/09 11:46:22;;;;;;;7.18;2.10;;;22.40;99.90;;;;;;5075393;28;20066;-58
2022/09/09 11:49:06;;;;;;;8.93;2.20;;;22.20;99.90;;;;;;5075380;28;20116;-58
2022/09/09 11:51:35;;;;;;;11.25;2.65;;;22.00;99.90;;;;;;5075600;28;20084;-58
2022/09/09 11:54:22;;;;;;;7.82;2.00;;;22.00;99.90;;;;;;5074325;28;20040;-57
2022/09/09 11:56:48;;;;;;;6.95;2.10;;;21.90;99.90;;;;;;5073434;28;20072;-58
2022/09/09 11:59:24;;;;;;;7.93;2.17;;;21.90;99.90;;;;;;5075406;28;20068;-58
2022/09/09 12:02:14;;;;;;;6.28;2.15;;;21.90;99.90;;;;;;5075370;28;20404;-58
2022/09/09 12:05:05;;;;;;;7.13;2.00;;;21.70;99.90;;;;;;5075151;28;20098;-57
2022/09/09 12:07:55;;;;;;;8.23;1.90;;;22.20;99.90;;;;;;5075013;28;20043;-57
2022/09/09 12:10:30;;;;;;;6.30;2.03;;;21.90;99.90;;;;;;5075108;28;20389;-58
2022/09/09 12:13:07;;;;;;;9.63;2.25;;;22.10;99.90;;;;;;5074875;28;20045;-58
2022/09/09 12:15:33;;;;;;;9.43;2.20;;;21.90;99.90;;;;;;5074968;28;20028;-58
2022/09/09 12:18:01;;;;;;;7.65;2.15;;;21.50;99.90;;;;;;5075066;28;20040;-58
2022/09/09 12:20:32;;;;;;;8.55;2.20;;;21.90;99.90;;;;;;5073446;28;20045;-58
2022/09/09 12:23:26;;;;;;;10.50;2.28;;;21.10;99.90;;;;;;5074632;28;20488;-58
2022/09/09 12:25:58;;;;;;;4.28;1.85;;;22.10;99.90;;;;;;5074099;28;20060;-57
2022/09/09 12:28:50;;;;;;;5.65;1.73;;;21.90;99.90;;;;;;5074718;28;20502;-58
2022/09/09 12:32:01;;;;;;;3.97;1.60;;;21.80;99.90;;;;;;5074852;28;20045;-57
2022/09/09 12:34:41;;;;;;;6.10;1.90;;;21.60;99.90;;;;;;5071160;28;20048;-58
2022/09/09 12:37:26;;;;;;;9.52;2.00;;;21.60;99.90;;;;;;5074573;28;20337;-58
2022/09/09 12:39:56;;;;;;;9.38;2.10;;;21.60;99.90;;;;;;5074649;28;20032;-58
2022/09/09 12:42:23;;;;;;;6.22;1.90;;;21.50;99.90;;;;;;5074403;28;20049;-58
2022/09/09 12:44:59;;;;;;;7.22;2.13;;;21.60;99.90;;;;;;5073974;28;20048;-58
2022/09/09 12:47:41;;;;;;;7.97;2.10;;;21.30;99.90;;;;;;5072450;28;20460;-58
2022/09/09 12:50:28;;;;;;;7.90;2.33;;;21.60;99.90;;;;;;5074248;28;20044;-57
2022/09/09 12:53:01;;;;;;;6.30;2.10;;;21.70;99.90;;;;;;5074196;28;20040;-57
2022/09/09 12:55:35;;;;;;;7.03;2.10;;;21.80;99.90;;;;;;5074321;28;20033;-58
2022/09/09 12:58:05;;;;;;;5.57;1.85;;;21.80;99.90;;;;;;5074332;28;20044;-57
2022/09/09 13:00:32;;;;;;;6.28;2.03;;;21.90;99.90;;;;;;5074217;28;20097;-57
2022/09/09 13:03:00;;;;;;;12.20;2.15;;;21.90;99.90;;;;;;5073665;28;20496;-58
2022/09/09 13:05:38;;;;;;;8.90;2.10;;;22.00;99.90;;;;;;5072619;28;20446;-58
2022/09/09 13:08:10;;;;;;;10.13;2.05;;;21.20;99.90;;;;;;5073578;28;20048;-58
2022/09/09 13:10:38;;;;;;;6.85;1.83;;;21.10;99.90;;;;;;5073798;28;20044;-58
2022/09/09 13:13:15;;;;;;;8.93;2.10;;;21.40;99.90;;;;;;5073928;28;20048;-58
2022/09/09 13:15:50;;;;;;;14.32;2.42;;;21.50;99.90;;;;;;5074178;28;20075;-58
2022/09/09 13:18:18;;;;;;;22.48;3.78;;;20.60;99.90;;;;;;5073526;28;20044;-58